createdAt,value
2018-02-17T00:15:57.964Z,88.70
2018-02-17T00:18:24.611Z,88.60
2018-02-17T00:30:36.186Z,87.90
2018-02-17T00:33:03.491Z,87.60
2018-02-17T00:35:30.143Z,87.60
2018-02-17T00:37:57.139Z,88.10
2018-02-17T00:40:23.965Z,88.10
2018-02-17T00:42:51.290Z,87.70
2018-02-17T00:45:17.555Z,87.60
2018-02-17T00:47:44.525Z,88.00
2018-02-17T00:50:10.732Z,87.90
2018-02-17T00:52:38.688Z,88.50
2018-02-17T00:55:05.296Z,88.40
2018-02-17T00:57:32.824Z,88.70
2018-02-17T00:59:59.049Z,88.70
2018-02-17T01:02:25.887Z,88.30
2018-02-17T01:04:52.150Z,88.20
2018-02-17T01:07:19.046Z,88.10
2018-02-17T01:09:46.566Z,88.20
2018-02-17T01:12:13.470Z,88.20
2018-02-17T01:14:40.610Z,88.10
2018-02-17T01:17:07.571Z,88.90
2018-02-17T01:19:34.362Z,88.90
2018-02-17T01:22:01.557Z,88.40
2018-02-17T01:24:27.967Z,88.80
2018-02-17T01:26:55.565Z,89.10
2018-02-17T01:29:22.810Z,89.10
2018-02-17T01:31:49.258Z,88.90
2018-02-17T01:34:16.304Z,88.60
2018-02-17T01:36:43.041Z,88.60
2018-02-17T01:39:10.429Z,88.00
2018-02-17T01:41:38.647Z,89.40
2018-02-17T01:44:05.746Z,89.00
2018-02-17T01:46:32.657Z,89.00
2018-02-17T01:48:59.425Z,89.00
2018-02-17T01:51:26.167Z,89.30
2018-02-17T01:53:52.474Z,89.40
2018-02-17T01:56:19.403Z,88.90
2018-02-17T01:58:46.918Z,88.50
2018-02-17T02:01:13.403Z,88.40
2018-02-17T02:03:39.882Z,87.90
2018-02-17T02:06:07.647Z,87.80
2018-02-17T02:08:34.334Z,87.40
2018-02-17T02:11:00.568Z,87.10
2018-02-17T02:13:27.428Z,86.80
2018-02-17T02:15:56.210Z,86.00
2018-02-17T02:18:22.959Z,85.70
2018-02-17T02:20:49.698Z,85.70
2018-02-17T02:23:16.182Z,85.80
2018-02-17T02:25:43.311Z,85.50
2018-02-17T02:28:09.735Z,85.50
2018-02-17T02:30:36.404Z,85.70
2018-02-17T02:33:03.187Z,85.60
2018-02-17T02:35:30.712Z,85.60
2018-02-17T02:37:57.667Z,85.80
2018-02-17T02:40:25.187Z,85.70
2018-02-17T02:42:51.827Z,85.70
2018-02-17T02:45:19.497Z,85.50
2018-02-17T02:47:47.026Z,85.40
2018-02-17T02:50:14.567Z,85.20
2018-02-17T02:52:40.840Z,85.20
2018-02-17T02:55:08.343Z,84.70
2018-02-17T02:57:35.189Z,84.90
2018-02-17T03:00:02.543Z,85.50
2018-02-17T03:02:29.245Z,85.40
2018-02-17T03:04:56.234Z,89.60
2018-02-17T03:07:22.450Z,89.60
2018-02-17T03:09:49.243Z,90.40
2018-02-17T03:12:16.460Z,91.20
2018-02-17T03:14:43.251Z,91.70
2018-02-17T03:17:09.486Z,92.10
2018-02-17T03:19:36.433Z,92.10
2018-02-17T03:22:04.002Z,91.80
2018-02-17T03:24:30.958Z,91.70
2018-02-17T03:26:57.238Z,91.70
2018-02-17T03:29:23.562Z,91.40
2018-02-17T03:31:50.016Z,91.30
2018-02-17T03:34:16.424Z,91.10
2018-02-17T03:36:43.205Z,90.90
2018-02-17T03:39:10.681Z,90.90
2018-02-17T03:41:37.405Z,90.90
2018-02-17T03:44:04.379Z,90.80
2018-02-17T03:46:31.276Z,90.80
2018-02-17T03:48:58.240Z,90.80
2018-02-17T03:51:25.829Z,90.50
2018-02-17T03:53:52.596Z,90.50
2018-02-17T03:56:18.807Z,90.40
2018-02-17T03:58:45.020Z,90.00
2018-02-17T04:01:12.318Z,89.90
2018-02-17T04:03:38.522Z,89.40
2018-02-17T04:06:05.052Z,89.50
2018-02-17T04:08:32.080Z,89.60
2018-02-17T04:10:58.722Z,89.60
2018-02-17T04:13:26.882Z,90.00
2018-02-17T04:15:53.112Z,90.00
2018-02-17T04:18:21.126Z,89.80
2018-02-17T04:20:48.117Z,89.10
2018-02-17T04:23:15.028Z,89.10
2018-02-17T04:25:41.991Z,89.80
2018-02-17T04:28:09.062Z,89.60
2018-02-17T04:30:35.285Z,89.60
2018-02-17T04:33:01.607Z,89.50
2018-02-17T04:35:28.802Z,89.50
2018-02-17T04:37:55.902Z,89.50
2018-02-17T04:40:24.767Z,89.70
2018-02-17T04:42:55.636Z,89.30
2018-02-17T04:45:21.892Z,89.20
2018-02-17T04:48:04.098Z,89.60
2018-02-17T04:50:33.009Z,89.30
2018-02-17T04:56:08.354Z,89.10
2018-02-17T04:58:38.957Z,88.60
2018-02-17T05:01:20.133Z,88.40
2018-02-17T05:03:46.362Z,88.30
2018-02-17T05:06:13.203Z,87.70
2018-02-17T05:08:45.198Z,88.10
2018-02-17T05:11:11.587Z,88.40
2018-02-17T05:13:38.387Z,88.50
2018-02-17T05:16:10.726Z,87.70
2018-02-17T05:18:47.928Z,87.60
2018-02-17T05:21:26.519Z,88.80
2018-02-17T05:23:53.822Z,89.30
2018-02-17T05:29:25.044Z,89.00
2018-02-17T05:31:53.736Z,89.00
2018-02-17T05:34:31.848Z,89.00
2018-02-17T05:36:58.643Z,89.00
2018-02-17T05:39:24.898Z,88.90
2018-02-17T05:41:55.715Z,89.20
2018-02-17T05:44:29.827Z,88.90
2018-02-17T05:46:59.427Z,89.60
2018-02-17T05:49:29.496Z,90.20
2018-02-17T05:51:55.715Z,90.00
2018-02-17T05:54:22.544Z,90.20
2018-02-17T05:56:49.304Z,90.20
2018-02-17T05:59:15.532Z,90.00
2018-02-17T06:01:41.746Z,89.90
2018-02-17T06:04:08.589Z,90.00
2018-02-17T06:06:35.587Z,89.80
2018-02-17T06:09:02.370Z,89.80
2018-02-17T06:11:30.006Z,90.30
2018-02-17T06:13:58.201Z,89.80
2018-02-17T06:16:24.454Z,89.80
2018-02-17T06:18:50.762Z,89.30
2018-02-17T06:21:18.630Z,89.10
2018-02-17T06:23:45.653Z,88.70
2018-02-17T06:26:17.488Z,88.60
2018-02-17T06:28:43.728Z,88.90
2018-02-17T06:31:09.998Z,89.30
2018-02-17T06:33:37.207Z,89.40
2018-02-17T06:36:03.514Z,89.40
2018-02-17T06:38:31.449Z,90.40
2018-02-17T06:40:58.710Z,90.40
2018-02-17T06:43:24.975Z,90.80
2018-02-17T06:45:51.711Z,90.90
2018-02-17T06:48:17.927Z,90.80
2018-02-17T06:50:44.893Z,90.50
2018-02-17T07:02:56.918Z,90.50
2018-02-17T07:05:23.296Z,90.20
2018-02-17T07:07:49.604Z,90.10
2018-02-17T07:10:16.420Z,90.10
2018-02-17T07:12:43.063Z,90.20
2018-02-17T07:15:09.411Z,90.20
2018-02-17T07:17:36.430Z,90.10
2018-02-17T07:20:02.680Z,90.10
2018-02-17T07:22:28.926Z,89.80
2018-02-17T07:24:56.075Z,89.70
2018-02-17T07:27:22.992Z,90.00
2018-02-17T07:29:50.311Z,90.00
2018-02-17T07:32:17.077Z,90.30
2018-02-17T07:34:43.290Z,90.50
2018-02-17T07:37:10.028Z,90.20
2018-02-17T07:39:37.472Z,89.80
2018-02-17T07:42:05.165Z,89.80
2018-02-17T07:44:31.444Z,89.80
2018-02-17T07:46:57.694Z,88.90
2018-02-17T07:49:23.900Z,88.70
2018-02-17T07:51:50.657Z,88.90
2018-02-17T07:54:18.327Z,88.50
2018-02-17T07:56:46.428Z,88.00
2018-02-17T07:59:12.739Z,88.00
2018-02-17T08:01:39.188Z,88.10
2018-02-17T08:04:06.172Z,88.50
2018-02-17T08:06:33.912Z,88.30
2018-02-17T08:09:00.959Z,90.00
2018-02-17T08:11:28.013Z,88.70
2018-02-17T08:13:54.950Z,88.50
2018-02-17T08:16:21.920Z,86.70
2018-02-17T08:18:48.172Z,86.70
2018-02-17T08:21:15.069Z,85.70
2018-02-17T08:23:41.693Z,85.20
2018-02-17T08:26:08.631Z,85.60
2018-02-17T08:38:24.440Z,86.00
2018-02-17T08:40:50.756Z,87.90
2018-02-17T08:43:17.096Z,88.50
2018-02-17T08:45:43.440Z,88.90
2018-02-17T08:48:10.379Z,88.80
2018-02-17T08:50:37.413Z,88.70
2018-02-17T08:53:04.661Z,88.70
2018-02-17T08:55:30.958Z,88.30
2018-02-17T08:57:58.050Z,88.20
2018-02-17T09:00:24.673Z,88.20
2018-02-17T09:02:51.999Z,88.50
2018-02-17T09:05:20.871Z,86.90
2018-02-17T09:07:47.851Z,86.90
2018-02-17T09:10:15.055Z,86.80
2018-02-17T09:12:42.449Z,86.10
2018-02-17T09:15:09.467Z,85.80
2018-02-17T09:17:35.715Z,85.80
2018-02-17T09:20:02.945Z,86.10
2018-02-17T09:22:30.450Z,86.40
2018-02-17T09:24:58.432Z,87.00
2018-02-17T09:27:25.396Z,86.80
2018-02-17T09:29:51.619Z,86.80
2018-02-17T09:32:18.609Z,86.70
2018-02-17T09:34:45.970Z,86.00
2018-02-17T09:37:12.232Z,85.90
2018-02-17T09:39:39.063Z,86.20
2018-02-17T09:42:05.738Z,85.50
2018-02-17T09:44:33.726Z,85.60
2018-02-17T09:46:59.996Z,85.60
2018-02-17T09:49:26.494Z,85.10
2018-02-17T09:51:54.139Z,83.50
2018-02-17T09:54:21.413Z,83.50
2018-02-17T09:56:48.953Z,83.10
2018-02-17T09:59:15.642Z,83.10
2018-02-17T10:01:42.811Z,84.20
2018-02-17T10:04:09.109Z,83.60
2018-02-17T10:06:36.050Z,84.60
2018-02-17T10:09:02.279Z,84.30
2018-02-17T10:11:28.797Z,83.50
2018-02-17T10:13:55.187Z,83.70
2018-02-17T10:16:21.808Z,83.00
2018-02-17T10:18:48.169Z,83.10
2018-02-17T10:21:14.999Z,83.00
2018-02-17T10:23:41.646Z,83.40
2018-02-17T10:26:09.708Z,80.90
2018-02-17T10:28:36.234Z,81.30
2018-02-17T10:31:02.484Z,79.50
2018-02-17T10:33:28.763Z,80.60
2018-02-17T10:35:54.956Z,80.40
2018-02-17T10:38:21.195Z,79.30
2018-02-17T10:40:48.398Z,79.80
2018-02-17T10:43:15.229Z,80.00
2018-02-17T10:45:42.022Z,79.80
2018-02-17T10:48:09.561Z,78.00
2018-02-17T10:50:38.057Z,77.90
2018-02-17T10:53:05.301Z,76.60
2018-02-17T10:55:36.532Z,77.60
2018-02-17T10:58:02.996Z,79.20
2018-02-17T11:00:29.955Z,78.50
2018-02-17T11:02:57.131Z,78.50
2018-02-17T11:25:35.305Z,79.20
2018-02-17T11:43:09.093Z,78.90
2018-02-17T11:45:35.475Z,77.50
2018-02-17T11:48:02.718Z,76.70
2018-02-17T11:50:30.397Z,77.90
2018-02-17T11:52:57.056Z,77.90
2018-02-17T11:55:24.124Z,80.20
2018-02-17T11:57:52.937Z,80.60
2018-02-17T12:00:20.120Z,81.10
2018-02-17T12:02:46.349Z,81.10
2018-02-17T12:05:12.640Z,81.00
2018-02-17T12:07:39.701Z,80.90
2018-02-17T12:10:28.061Z,81.60
2018-02-17T12:12:59.919Z,81.50
2018-02-17T12:15:28.833Z,82.10
2018-02-17T12:17:56.272Z,81.90
2018-02-17T13:18:00.043Z,81.10
2018-02-17T13:20:27.179Z,81.00
2018-02-17T13:22:54.174Z,81.20
2018-02-17T13:25:20.405Z,81.10
2018-02-17T13:27:46.672Z,81.20
2018-02-17T13:30:15.903Z,81.40
2018-02-17T13:32:45.664Z,83.10
2018-02-17T13:35:12.071Z,83.10
2018-02-17T13:37:40.041Z,87.40
2018-02-17T13:40:06.517Z,85.30
2018-02-17T13:42:32.981Z,82.80
2018-02-17T13:45:00.228Z,82.10
2018-02-17T13:47:27.163Z,82.10
2018-02-17T13:49:54.773Z,82.00
2018-02-17T13:52:22.189Z,81.00
2018-02-17T13:54:48.720Z,81.00
2018-02-17T13:57:15.901Z,82.40
2018-02-17T13:59:42.792Z,82.40
2018-02-17T14:02:08.902Z,82.00
2018-02-17T14:04:36.586Z,82.40
2018-02-17T14:07:03.592Z,82.60
2018-02-17T14:09:30.879Z,82.40
2018-02-17T14:11:57.220Z,82.00
2018-02-17T14:14:24.847Z,82.10
2018-02-17T14:16:51.107Z,82.10
2018-02-17T14:19:18.073Z,82.40
2018-02-17T14:21:44.301Z,82.30
2018-02-17T14:24:11.195Z,82.60
2018-02-17T14:26:37.880Z,82.60
2018-02-17T14:29:05.033Z,83.00
2018-02-17T14:31:31.421Z,82.90
2018-02-17T14:33:57.748Z,83.20
2018-02-17T14:36:24.216Z,83.10
2018-02-17T14:38:51.334Z,83.60
2018-02-17T14:41:17.638Z,84.20
2018-02-17T14:43:45.415Z,84.70
2018-02-17T14:46:13.015Z,84.50
2018-02-17T14:48:39.585Z,84.50
2018-02-17T14:51:07.310Z,84.90
2018-02-17T14:53:34.367Z,84.80
2018-02-17T14:56:01.599Z,84.30
2018-02-17T14:58:28.029Z,84.30
2018-02-17T15:00:54.419Z,85.10
2018-02-17T15:03:20.663Z,84.80
2018-02-17T15:05:47.017Z,84.30
2018-02-17T15:08:13.294Z,84.10
2018-02-17T15:10:40.148Z,84.10
2018-02-17T15:13:06.369Z,84.70
2018-02-17T15:15:33.033Z,85.90
2018-02-17T15:17:59.325Z,86.20
2018-02-17T15:20:26.139Z,87.90
2018-02-17T15:22:53.396Z,88.50
2018-02-17T15:25:21.064Z,90.00
2018-02-17T15:27:47.647Z,90.00
2018-02-17T15:30:14.957Z,90.30
2018-02-17T15:32:41.845Z,90.30
2018-02-17T15:35:08.788Z,90.60
2018-02-17T15:37:35.227Z,90.50
2018-02-17T15:40:01.790Z,90.70
2018-02-17T15:42:29.229Z,90.90
2018-02-17T15:44:56.552Z,90.90
2018-02-17T15:47:23.692Z,91.00
2018-02-17T15:49:49.899Z,91.00
2018-02-17T15:52:16.165Z,90.30
2018-02-17T15:54:42.777Z,90.10
2018-02-17T15:57:09.853Z,90.40
2018-02-17T15:59:36.455Z,90.40
2018-02-17T16:02:03.538Z,91.10
2018-02-17T16:04:30.418Z,91.10
2018-02-17T16:06:58.390Z,91.50
2018-02-17T16:09:26.683Z,91.30
2018-02-17T16:11:52.919Z,91.20
2018-02-17T16:14:19.371Z,91.30
2018-02-17T16:16:45.597Z,91.40
2018-02-17T16:19:11.803Z,91.70
2018-02-17T16:21:38.384Z,91.80
2018-02-17T16:24:06.510Z,91.80
2018-02-17T16:26:33.735Z,91.70
2018-02-17T16:29:01.770Z,91.90
2018-02-17T16:31:28.003Z,91.80
2018-02-17T16:33:54.203Z,91.80
2018-02-17T16:36:20.595Z,92.00
2018-02-17T16:38:47.642Z,92.40
2018-02-17T16:41:13.922Z,92.40
2018-02-17T16:43:40.325Z,92.40
2018-02-17T16:46:06.547Z,92.10
2018-02-17T16:48:34.561Z,91.90
2018-02-17T16:51:00.803Z,91.90
2018-02-17T16:53:27.705Z,91.30
2018-02-17T16:55:54.525Z,91.00
2018-02-17T16:58:21.487Z,91.30
2018-02-17T17:00:48.208Z,91.00
2018-02-17T17:03:15.724Z,90.90
2018-02-17T17:05:43.885Z,90.90
2018-02-17T17:08:10.194Z,91.40
2018-02-17T17:10:36.557Z,91.60
2018-02-17T17:13:02.774Z,91.40
2018-02-17T17:15:36.673Z,91.20
2018-02-17T17:18:03.577Z,90.80
2018-02-17T17:20:33.972Z,90.90
2018-02-17T17:23:00.490Z,90.60
2018-02-17T17:25:27.522Z,90.70
2018-02-17T17:27:53.803Z,90.60
2018-02-17T17:30:21.079Z,90.70
2018-02-17T17:32:47.840Z,90.80
2018-02-17T17:35:15.002Z,90.20
2018-02-17T17:37:41.665Z,90.20
2018-02-17T17:40:09.809Z,91.30
2018-02-17T17:42:36.033Z,91.20
2018-02-17T17:45:02.300Z,90.90
2018-02-17T17:47:28.905Z,90.40
2018-02-17T17:49:55.136Z,90.20
2018-02-17T17:52:22.015Z,90.20
2018-02-17T17:54:49.861Z,90.30
2018-02-17T17:57:16.887Z,90.20
2018-02-17T17:59:43.087Z,90.10
2018-02-17T18:02:10.407Z,89.90
2018-02-17T18:04:37.308Z,89.80
2018-02-17T18:07:03.566Z,89.60
2018-02-17T18:09:30.941Z,89.60
2018-02-17T18:11:58.495Z,89.50
2018-02-17T18:14:25.343Z,89.70
2018-02-17T18:16:52.937Z,89.50
2018-02-17T18:19:19.155Z,89.50
2018-02-17T18:21:46.094Z,89.80
2018-02-17T18:24:13.330Z,90.40
2018-02-17T18:26:40.471Z,90.40
2018-02-17T18:29:07.063Z,90.40
2018-02-17T18:31:33.774Z,90.80
2018-02-17T18:34:00.524Z,91.20
2018-02-17T18:36:27.185Z,91.00
2018-02-17T18:38:53.952Z,90.70
2018-02-17T18:41:20.984Z,91.70
2018-02-17T18:43:48.045Z,91.70
2018-02-17T18:46:18.594Z,91.60
2018-02-17T18:48:45.382Z,91.40
2018-02-17T18:51:12.090Z,91.20
2018-02-17T18:53:39.855Z,91.40
2018-02-17T18:56:06.111Z,91.40
2018-02-17T18:58:32.700Z,91.90
2018-02-17T19:01:00.495Z,91.60
2018-02-17T19:03:26.748Z,91.60
2018-02-17T19:05:52.975Z,91.80
2018-02-17T19:08:19.190Z,91.60
2018-02-17T19:10:45.414Z,91.80
2018-02-17T19:13:12.626Z,92.20
2018-02-17T19:15:38.978Z,92.50
2018-02-17T19:18:05.879Z,92.70
2018-02-17T19:20:32.844Z,93.20
2018-02-17T19:22:59.060Z,93.20
2018-02-17T19:25:25.244Z,93.30
2018-02-17T19:27:52.004Z,93.00
2018-02-17T19:30:18.179Z,93.10
2018-02-17T19:32:44.752Z,92.90
2018-02-17T19:35:12.849Z,93.30
2018-02-17T19:37:39.051Z,93.30
2018-02-17T19:40:05.669Z,93.30
2018-02-17T19:42:33.810Z,92.90
2018-02-17T19:45:01.166Z,93.00
2018-02-17T19:47:28.106Z,92.60
2018-02-17T19:49:54.937Z,92.60
2018-02-17T19:52:21.668Z,92.60
2018-02-17T19:54:48.864Z,92.80
2018-02-17T19:57:15.616Z,92.80
2018-02-17T19:59:42.496Z,93.00
2018-02-17T20:02:08.692Z,92.90
2018-02-17T20:04:34.948Z,92.90
2018-02-17T20:07:01.820Z,92.70
2018-02-17T20:09:28.873Z,92.60
2018-02-17T20:11:55.854Z,93.00
2018-02-17T20:14:22.596Z,93.00
2018-02-17T20:16:50.406Z,92.90
2018-02-17T20:19:17.789Z,93.00
2018-02-17T20:21:45.291Z,92.80
2018-02-17T20:24:13.239Z,92.50
2018-02-17T20:26:39.724Z,92.50
2018-02-17T20:29:06.638Z,92.30
2018-02-17T20:31:33.123Z,92.20
2018-02-17T20:34:00.804Z,92.40
2018-02-17T20:36:27.691Z,92.40
2018-02-17T20:38:53.889Z,92.30
2018-02-17T20:41:20.124Z,92.10
2018-02-17T20:43:46.629Z,91.90
2018-02-17T20:46:14.695Z,91.50
2018-02-17T20:48:42.588Z,91.40
2018-02-17T20:51:10.250Z,91.40
2018-02-17T20:53:36.541Z,91.60
2018-02-17T20:56:03.740Z,91.30
2018-02-17T20:58:30.402Z,91.30
2018-02-17T21:00:56.762Z,91.10
2018-02-17T21:03:23.012Z,91.10
2018-02-17T21:05:49.245Z,91.10
2018-02-17T21:08:16.200Z,91.00
2018-02-17T21:10:42.957Z,90.90
2018-02-17T21:13:09.842Z,90.70
2018-02-17T21:15:36.382Z,90.70
2018-02-17T21:18:03.816Z,90.50
2018-02-17T21:20:30.895Z,90.40
2018-02-17T21:22:58.149Z,90.30
2018-02-17T21:25:24.694Z,90.40
2018-02-17T21:27:52.103Z,90.10
2018-02-17T21:30:19.467Z,90.00
2018-02-17T21:32:45.701Z,90.40
2018-02-17T21:35:12.808Z,90.30
2018-02-17T21:37:39.074Z,90.30
2018-02-17T21:40:05.304Z,90.40
2018-02-17T21:42:32.337Z,90.20
2018-02-17T21:44:59.451Z,90.20
2018-02-17T21:47:26.606Z,90.20
2018-02-17T21:49:53.891Z,90.00
2018-02-17T21:52:20.891Z,90.10
2018-02-17T21:54:47.147Z,90.10
2018-02-17T21:57:13.987Z,90.00
2018-02-17T21:59:40.227Z,90.10
2018-02-17T22:02:06.452Z,90.10
2018-02-17T22:04:33.708Z,90.10
2018-02-17T22:07:00.727Z,90.00
2018-02-17T22:09:27.692Z,90.00
2018-02-17T22:11:54.267Z,90.00
2018-02-17T22:14:21.583Z,90.00
2018-02-17T22:16:47.797Z,90.00
2018-02-17T22:19:14.727Z,90.00
2018-02-17T22:21:42.189Z,90.00
2018-02-17T22:24:09.845Z,90.10
2018-02-17T22:26:36.307Z,90.00
2018-02-17T22:29:02.538Z,90.00
2018-02-17T22:31:28.756Z,90.20
2018-02-17T22:33:55.965Z,90.00
2018-02-17T22:36:22.515Z,90.00
2018-02-17T22:38:49.951Z,89.80
2018-02-17T22:47:11.424Z,90.30
2018-02-17T22:49:38.767Z,90.40
2018-02-17T22:52:14.023Z,90.20
2018-02-17T22:54:41.249Z,90.20
2018-02-17T22:57:10.091Z,90.00
2018-02-17T22:59:36.398Z,90.10
2018-02-17T23:02:04.074Z,90.00
2018-02-17T23:04:30.833Z,90.00
2018-02-17T23:06:57.693Z,90.00
2018-02-17T23:12:20.006Z,89.80
2018-02-17T23:14:49.506Z,90.00
2018-02-17T23:17:16.540Z,90.20
2018-02-17T23:19:43.305Z,90.00
2018-02-17T23:22:12.770Z,90.00
2018-02-17T23:24:39.054Z,90.00
2018-02-17T23:27:05.611Z,89.50
2018-02-17T23:29:32.574Z,89.70
2018-02-17T23:31:58.958Z,89.70
2018-02-17T23:34:25.468Z,89.90
2018-02-17T23:36:51.960Z,90.00
2018-02-17T23:39:19.035Z,89.70
2018-02-17T23:41:45.441Z,89.70
2018-02-17T23:44:12.604Z,89.60
2018-02-17T23:46:38.877Z,89.60
2018-02-17T23:49:06.096Z,90.00
2018-02-17T23:51:33.588Z,89.80
2018-02-17T23:56:54.512Z,89.40
2018-02-17T23:59:21.979Z,89.20
